Time,TemperatureF,DewpointF,PressureIn,WindDirection,WindDirectionDegrees,WindSpeedMPH,WindSpeedGustMPH,Humidity,HourlyPrecipIn,Conditions,Clouds,dailyrainin,SoftwareType,DateUTC
2013-01-13 00:02:00,62.8,61.6,30.09,SE,135,0.0,0.0,96,0.00,SCT,,0.00,WeatherDisplay:10.37,2013-01-13 05:02:00,
2013-01-13 00:18:00,62.2,61.1,30.09,SE,135,0.0,0.0,96,0.00,SCT,,0.00,WeatherDisplay:10.37,2013-01-13 05:18:00,
2013-01-13 00:21:00,61.9,60.7,30.09,SE,135,0.0,0.0,96,0.00,SCT,,0.00,WeatherDisplay:10.37,2013-01-13 05:21:00,
2013-01-13 00:40:00,61.5,60.4,30.09,SE,135,0.0,0.0,96,0.00,SCT,,0.00,WeatherDisplay:10.37,2013-01-13 05:40:00,
2013-01-13 00:50:00,61.3,60.2,30.09,SE,135,0.0,0.0,96,0.00,SCT,,0.00,WeatherDisplay:10.37,2013-01-13 05:50:00,
2013-01-13 01:05:00,61.0,59.8,30.09,SE,135,0.0,0.0,96,0.00,SCT,,0.00,WeatherDisplay:10.37,2013-01-13 06:05:00,
2013-01-13 01:27:00,60.4,59.3,30.09,SE,135,0.0,0.0,96,0.00,SCT,,0.00,WeatherDisplay:10.37,2013-01-13 06:27:00,
2013-01-13 01:45:00,60.1,58.9,30.09,SE,135,0.0,0.0,96,0.00,SCT,,0.00,WeatherDisplay:10.37,2013-01-13 06:45:00,
2013-01-13 02:10:00,59.9,58.8,30.08,SE,135,0.0,0.0,96,0.00,CLR,,0.00,WeatherDisplay:10.37,2013-01-13 07:10:00,
2013-01-13 02:22:00,59.7,58.9,30.08,SE,135,0.0,0.0,97,0.00,CLR,,0.00,WeatherDisplay:10.37,2013-01-13 07:22:00,
2013-01-13 02:30:00,59.5,58.7,30.08,SE,135,0.0,0.0,97,0.00,CLR,,0.00,WeatherDisplay:10.37,2013-01-13 07:30:00,
2013-01-13 02:40:00,59.4,58.5,30.08,SE,135,0.0,0.0,97,0.00,CLR,,0.00,WeatherDisplay:10.37,2013-01-13 07:40:00,
2013-01-13 02:56:00,59.2,58.3,30.07,SE,135,0.0,0.0,97,0.00,CLR,,0.00,WeatherDisplay:10.37,2013-01-13 07:56:00,
2013-01-13 03:05:00,59.0,58.2,30.07,SE,135,0.0,0.0,97,0.00,CLR,,0.00,WeatherDisplay:10.37,2013-01-13 08:05:00,
2013-01-13 03:22:00,58.6,57.5,30.07,SE,135,0.0,0.0,96,0.00,CLR,,0.00,WeatherDisplay:10.37,2013-01-13 08:22:00,
2013-01-13 03:30:00,58.8,58.0,30.07,SE,135,0.0,0.0,97,0.00,CLR,,0.00,WeatherDisplay:10.37,2013-01-13 08:30:00,
2013-01-13 03:37:00,58.6,57.8,30.07,SE,135,0.0,0.0,97,0.00,CLR,,0.00,WeatherDisplay:10.37,2013-01-13 08:37:00,
2013-01-13 03:42:00,58.5,57.3,30.07,SE,135,0.0,0.0,96,0.00,CLR,,0.00,WeatherDisplay:10.37,2013-01-13 08:42:00,
2013-01-13 03:49:00,58.3,57.1,30.06,SE,135,0.0,0.0,96,0.00,CLR,,0.00,WeatherDisplay:10.37,2013-01-13 08:49:00,
2013-01-13 03:59:00,58.3,57.4,30.06,SE,135,0.0,0.0,97,0.00,CLR,,0.00,WeatherDisplay:10.37,2013-01-13 08:59:00,
2013-01-13 04:09:00,57.9,57.1,30.06,SE,135,0.0,0.0,97,0.00,CLR,,0.00,WeatherDisplay:10.37,2013-01-13 09:09:00,
2013-01-13 04:15:00,57.9,57.1,30.06,SE,135,0.0,0.0,97,0.00,CLR,,0.00,WeatherDisplay:10.37,2013-01-13 09:15:00,
2013-01-13 04:24:00,57.7,56.9,30.06,SE,135,0.0,0.0,97,0.00,CLR,,0.00,WeatherDisplay:10.37,2013-01-13 09:24:00,
2013-01-13 04:29:00,57.7,56.9,30.05,SE,135,0.0,0.0,97,0.00,CLR,,0.00,WeatherDisplay:10.37,2013-01-13 09:29:00,
2013-01-13 04:40:00,57.6,56.7,30.06,SE,135,0.0,0.0,97,0.00,CLR,,0.00,WeatherDisplay:10.37,2013-01-13 09:40:00,
2013-01-13 04:50:00,57.4,56.5,30.06,SE,135,0.0,0.0,97,0.00,CLR,,0.00,WeatherDisplay:10.37,2013-01-13 09:50:00,
2013-01-13 04:55:00,57.2,56.4,30.05,SE,135,0.0,0.0,97,0.00,CLR,,0.00,WeatherDisplay:10.37,2013-01-13 09:55:00,
2013-01-13 05:09:00,57.2,56.4,30.05,SE,135,0.0,0.0,97,0.00,CLR,,0.00,WeatherDisplay:10.37,2013-01-13 10:09:00,
2013-01-13 05:18:00,57.0,56.2,30.05,SE,135,0.0,0.0,97,0.00,CLR,,0.00,WeatherDisplay:10.37,2013-01-13 10:18:00,
2013-01-13 05:31:00,57.2,56.4,30.06,SE,135,0.0,0.0,97,0.00,CLR,,0.00,WeatherDisplay:10.37,2013-01-13 10:31:00,
2013-01-13 05:36:00,57.4,56.5,30.05,SE,135,0.0,0.0,97,0.00,CLR,,0.00,WeatherDisplay:10.37,2013-01-13 10:36:00,
2013-01-13 05:45:00,57.4,56.5,30.06,SE,135,0.0,0.0,97,0.00,CLR,,0.00,WeatherDisplay:10.37,2013-01-13 10:45:00,
2013-01-13 05:50:00,57.2,56.4,30.06,SE,135,0.0,0.0,97,0.00,CLR,,0.00,WeatherDisplay:10.37,2013-01-13 10:50:00,
2013-01-13 05:58:00,56.8,56.0,30.06,SE,135,0.0,0.0,97,0.00,CLR,,0.00,WeatherDisplay:10.37,2013-01-13 10:58:00,
2013-01-13 06:03:00,56.8,56.0,30.06,SE,135,0.0,0.0,97,0.00,CLR,,0.00,WeatherDisplay:10.37,2013-01-13 11:03:00,
2013-01-13 06:13:00,56.8,56.0,30.07,SE,135,0.0,0.0,97,0.00,FEW,,0.00,WeatherDisplay:10.37,2013-01-13 11:13:00,
2013-01-13 06:26:00,56.8,56.0,30.07,SE,135,0.0,0.0,97,0.00,FEW,,0.00,WeatherDisplay:10.37,2013-01-13 11:26:00,
2013-01-13 06:34:00,56.5,55.6,30.06,SE,135,0.0,0.0,97,0.00,FEW,,0.00,WeatherDisplay:10.37,2013-01-13 11:34:00,
2013-01-13 06:39:00,56.5,55.6,30.07,SE,135,0.0,0.0,97,0.00,FEW,,0.00,WeatherDisplay:10.37,2013-01-13 11:39:00,
2013-01-13 06:47:00,56.5,55.6,30.07,SE,135,0.0,0.0,97,0.00,FEW,,0.00,WeatherDisplay:10.37,2013-01-13 11:47:00,
2013-01-13 06:55:00,56.7,55.8,30.07,SE,135,0.0,0.0,97,0.00,FEW,,0.00,WeatherDisplay:10.37,2013-01-13 11:55:00,
2013-01-13 07:16:00,56.8,56.0,30.08,SE,135,0.0,0.0,97,0.00,FEW,,0.00,WeatherDisplay:10.37,2013-01-13 12:16:00,
2013-01-13 07:27:00,57.4,56.5,30.08,SE,135,0.0,0.0,97,0.00,FEW,,0.00,WeatherDisplay:10.37,2013-01-13 12:27:00,
2013-01-13 07:35:00,57.7,56.9,30.08,SE,135,0.0,0.0,97,0.00,FEW,,0.00,WeatherDisplay:10.37,2013-01-13 12:35:00,
2013-01-13 07:53:00,58.3,57.4,30.10,SE,135,0.0,0.0,97,0.00,FEW,,0.00,WeatherDisplay:10.37,2013-01-13 12:53:00,
2013-01-13 08:13:00,59.7,58.9,30.10,SE,135,0.0,0.0,97,0.00,FEW,,0.00,WeatherDisplay:10.37,2013-01-13 13:13:00,
2013-01-13 08:27:00,60.4,59.6,30.11,SE,135,0.0,0.0,97,0.00,FEW,,0.00,WeatherDisplay:10.37,2013-01-13 13:27:00,
2013-01-13 08:35:00,61.0,60.1,30.12,SE,135,0.0,0.0,97,0.00,FEW,,0.00,WeatherDisplay:10.37,2013-01-13 13:35:00,
2013-01-13 08:41:00,61.7,61.1,30.13,SE,135,0.0,0.0,98,0.00,FEW,,0.00,WeatherDisplay:10.37,2013-01-13 13:41:00,
2013-01-13 08:51:00,62.4,61.6,30.13,SE,135,0.0,0.0,97,0.00,FEW,,0.00,WeatherDisplay:10.37,2013-01-13 13:51:00,
2013-01-13 08:57:00,62.8,61.9,30.13,SE,135,0.0,0.0,97,0.00,FEW,,0.00,WeatherDisplay:10.37,2013-01-13 13:57:00,
2013-01-13 09:15:00,64.0,63.2,30.14,SE,135,0.0,0.0,97,0.00,FEW,,0.00,WeatherDisplay:10.37,2013-01-13 14:15:00,
2013-01-13 09:22:00,64.2,63.4,30.14,SE,135,0.0,0.0,97,0.00,FEW,,0.00,WeatherDisplay:10.37,2013-01-13 14:22:00,
2013-01-13 09:35:00,65.7,65.1,30.15,SE,135,0.0,0.0,98,0.00,FEW,,0.00,WeatherDisplay:10.37,2013-01-13 14:35:00,
2013-01-13 10:05:00,68.5,67.1,30.14,SE,135,0.0,0.0,95,0.00,FEW,,0.00,WeatherDisplay:10.37,2013-01-13 15:05:00,
2013-01-13 10:14:00,70.7,67.6,30.14,SE,135,0.0,0.0,90,0.00,FEW,,0.00,WeatherDisplay:10.37,2013-01-13 15:14:00,
2013-01-13 10:25:00,73.0,67.9,30.14,SE,135,0.0,0.0,84,0.00,FEW,,0.00,WeatherDisplay:10.37,2013-01-13 15:25:00,
2013-01-13 10:42:00,76.1,68.0,30.14,South,180,0.0,0.0,76,0.00,FEW,,0.00,WeatherDisplay:10.37,2013-01-13 15:42:00,
2013-01-13 11:01:00,75.9,67.0,30.14,SW,225,0.0,0.0,74,0.00,FEW,,0.00,WeatherDisplay:10.37,2013-01-13 16:01:00,
2013-01-13 11:19:00,76.8,66.3,30.12,SE,135,0.0,0.0,70,0.00,FEW,,0.00,WeatherDisplay:10.37,2013-01-13 16:19:00,
2013-01-13 11:42:00,79.5,64.9,30.11,SE,135,0.0,0.0,61,0.00,FEW,,0.00,WeatherDisplay:10.37,2013-01-13 16:42:00,
2013-01-13 11:48:00,81.1,65.0,30.10,SE,135,0.0,0.0,58,0.00,FEW,,0.00,WeatherDisplay:10.37,2013-01-13 16:48:00,
2013-01-13 12:05:00,80.4,63.8,30.09,SW,225,0.0,0.0,57,0.00,FEW,,0.00,WeatherDisplay:10.37,2013-01-13 17:05:00,
2013-01-13 12:13:00,79.9,63.8,30.09,South,180,0.0,0.0,58,0.00,FEW,,0.00,WeatherDisplay:10.37,2013-01-13 17:13:00,
2013-01-13 12:30:00,79.0,63.9,30.08,SE,135,0.0,0.0,60,0.00,FEW,,0.00,WeatherDisplay:10.37,2013-01-13 17:30:00,
2013-01-13 12:49:00,78.8,62.8,30.07,SE,135,0.0,0.0,58,0.00,FEW,,0.00,WeatherDisplay:10.37,2013-01-13 17:49:00,
2013-01-13 12:54:00,79.0,63.4,30.07,SE,135,0.0,0.0,59,0.00,FEW,,0.00,WeatherDisplay:10.37,2013-01-13 17:54:00,
2013-01-13 13:05:00,79.5,63.9,30.06,East,90,0.0,0.0,59,0.00,FEW,,0.00,WeatherDisplay:10.37,2013-01-13 18:05:00,
2013-01-13 13:12:00,79.3,63.3,30.06,South,180,0.0,0.0,58,0.00,FEW,,0.00,WeatherDisplay:10.37,2013-01-13 18:12:00,
2013-01-13 13:18:00,79.0,63.4,30.06,NE,45,0.0,0.0,59,0.00,FEW,,0.00,WeatherDisplay:10.37,2013-01-13 18:18:00,
2013-01-13 13:28:00,79.2,64.1,30.06,SE,135,0.0,0.0,60,0.00,FEW,,0.00,WeatherDisplay:10.37,2013-01-13 18:28:00,
2013-01-13 13:41:00,78.6,65.0,30.05,SE,135,0.0,0.0,63,0.00,FEW,,0.00,WeatherDisplay:10.37,2013-01-13 18:41:00,
2013-01-13 13:47:00,78.8,64.7,30.05,SE,135,0.0,0.0,62,0.00,FEW,,0.00,WeatherDisplay:10.37,2013-01-13 18:47:00,
2013-01-13 13:58:00,79.2,65.0,30.05,South,180,0.0,0.0,62,0.00,FEW,,0.00,WeatherDisplay:10.37,2013-01-13 18:58:00,
2013-01-13 14:10:00,78.6,63.6,30.04,East,90,0.0,0.0,60,0.00,FEW,,0.00,WeatherDisplay:10.37,2013-01-13 19:10:00,
2013-01-13 14:24:00,78.6,63.6,30.05,NE,45,0.0,0.0,60,0.00,FEW,,0.00,WeatherDisplay:10.37,2013-01-13 19:24:00,
2013-01-13 14:48:00,78.3,64.2,30.05,NE,45,0.0,0.0,62,0.00,FEW,,0.00,WeatherDisplay:10.37,2013-01-13 19:48:00,
2013-01-13 15:03:00,78.4,64.3,30.06,NE,45,0.0,0.0,62,0.00,FEW,,0.00,WeatherDisplay:10.37,2013-01-13 20:03:00,
2013-01-13 15:11:00,78.1,64.0,30.06,NE,45,0.0,0.0,62,0.00,FEW,,0.00,WeatherDisplay:10.37,2013-01-13 20:11:00,
2013-01-13 15:21:00,78.1,64.5,30.07,East,90,0.0,0.0,63,0.00,BKN,,0.00,WeatherDisplay:10.37,2013-01-13 20:21:00,
2013-01-13 15:34:00,77.7,64.1,30.06,NE,45,0.0,0.0,63,0.00,BKN,,0.00,WeatherDisplay:10.37,2013-01-13 20:34:00,
2013-01-13 15:39:00,77.7,64.6,30.06,NE,45,0.0,0.0,64,0.00,BKN,,0.00,WeatherDisplay:10.37,2013-01-13 20:39:00,
2013-01-13 16:08:00,77.2,64.9,30.07,NE,45,0.0,0.0,66,0.00,BKN,,0.00,WeatherDisplay:10.37,2013-01-13 21:08:00,
2013-01-13 16:15:00,76.6,65.3,30.07,NE,45,0.0,0.0,68,0.00,OVC,,0.00,WeatherDisplay:10.37,2013-01-13 21:15:00,
2013-01-13 16:22:00,76.3,64.9,30.07,NE,45,0.0,0.0,68,0.00,OVC,,0.00,WeatherDisplay:10.37,2013-01-13 21:22:00,
2013-01-13 16:31:00,75.9,65.0,30.07,NE,45,0.0,0.0,69,0.00,OVC,,0.00,WeatherDisplay:10.37,2013-01-13 21:31:00,
2013-01-13 16:43:00,75.7,64.8,30.08,NE,45,0.0,0.0,69,0.00,OVC,,0.00,WeatherDisplay:10.37,2013-01-13 21:43:00,
2013-01-13 17:01:00,75.0,64.2,30.07,NE,45,0.0,0.0,69,0.00,OVC,,0.00,WeatherDisplay:10.37,2013-01-13 22:01:00,
2013-01-13 17:10:00,74.5,64.1,30.07,NE,45,0.0,0.0,70,0.00,OVC,,0.00,WeatherDisplay:10.37,2013-01-13 22:10:00,
2013-01-13 17:18:00,74.1,63.7,30.07,NE,45,0.0,0.0,70,0.00,OVC,,0.00,WeatherDisplay:10.37,2013-01-13 22:18:00,
2013-01-13 17:28:00,73.2,63.6,30.07,NE,45,0.0,0.0,72,0.00,OVC,,0.00,WeatherDisplay:10.37,2013-01-13 22:28:00,
2013-01-13 17:43:00,72.7,63.9,30.07,NE,45,0.0,0.0,74,0.00,OVC,,0.00,WeatherDisplay:10.37,2013-01-13 22:43:00,
2013-01-13 17:50:00,72.1,64.2,30.07,NE,45,0.0,0.0,76,0.00,OVC,,0.00,WeatherDisplay:10.37,2013-01-13 22:50:00,
2013-01-13 17:58:00,71.8,64.2,30.07,NE,45,0.0,0.0,77,0.00,OVC,,0.00,WeatherDisplay:10.37,2013-01-13 22:58:00,
2013-01-13 18:09:00,70.9,64.0,30.07,NE,45,0.0,0.0,79,0.00,OVC,,0.00,WeatherDisplay:10.37,2013-01-13 23:09:00,
2013-01-13 18:23:00,70.0,64.2,30.07,NE,45,0.0,0.0,82,0.00,BKN,,0.00,WeatherDisplay:10.37,2013-01-13 23:23:00,
2013-01-13 18:31:00,69.8,64.1,30.07,NE,45,0.0,0.0,82,0.00,BKN,,0.00,WeatherDisplay:10.37,2013-01-13 23:31:00,
2013-01-13 18:39:00,69.4,64.0,30.07,SE,135,0.0,0.0,83,0.00,BKN,,0.00,WeatherDisplay:10.37,2013-01-13 23:39:00,
2013-01-13 19:11:00,68.4,63.7,30.07,East,90,0.0,0.0,85,0.00,BKN,,0.00,WeatherDisplay:10.37,2013-01-14 00:11:00,
2013-01-13 19:17:00,68.2,63.5,30.07,East,90,0.0,0.0,85,0.00,BKN,,0.00,WeatherDisplay:10.37,2013-01-14 00:17:00,
2013-01-13 19:25:00,67.8,63.1,30.07,East,90,0.0,0.0,85,0.00,BKN,,0.00,WeatherDisplay:10.37,2013-01-14 00:25:00,
2013-01-13 19:51:00,66.9,62.9,30.07,East,90,0.0,0.0,87,0.00,BKN,,0.00,WeatherDisplay:10.37,2013-01-14 00:51:00,
2013-01-13 20:01:00,66.7,63.1,30.07,East,90,0.0,0.0,88,0.00,BKN,,0.00,WeatherDisplay:10.37,2013-01-14 01:01:00,
2013-01-13 20:11:00,66.4,63.0,30.07,East,90,0.0,0.0,89,0.00,BKN,,0.00,WeatherDisplay:10.37,2013-01-14 01:11:00,
2013-01-13 20:21:00,66.0,62.7,30.07,East,90,0.0,0.0,89,0.00,SCT,,0.00,WeatherDisplay:10.37,2013-01-14 01:21:00,
2013-01-13 20:27:00,65.8,62.5,30.07,East,90,0.0,0.0,89,0.00,SCT,,0.00,WeatherDisplay:10.37,2013-01-14 01:27:00,
2013-01-13 20:59:00,64.9,61.9,30.08,East,90,0.0,0.0,90,0.00,SCT,,0.00,WeatherDisplay:10.37,2013-01-14 01:59:00,
2013-01-13 21:15:00,64.2,61.5,30.08,East,90,0.0,0.0,91,0.00,SCT,,0.00,WeatherDisplay:10.37,2013-01-14 02:15:00,
2013-01-13 21:20:00,64.0,61.4,30.08,East,90,0.0,0.0,91,0.00,SCT,,0.00,WeatherDisplay:10.37,2013-01-14 02:20:00,
2013-01-13 21:30:00,63.7,61.0,30.08,East,90,0.0,0.0,91,0.00,SCT,,0.00,WeatherDisplay:10.37,2013-01-14 02:30:00,
2013-01-13 21:40:00,63.3,61.0,30.08,East,90,0.0,0.0,92,0.00,SCT,,0.00,WeatherDisplay:10.37,2013-01-14 02:40:00,
2013-01-13 21:52:00,63.1,60.8,30.09,East,90,0.0,0.0,92,0.00,SCT,,0.00,WeatherDisplay:10.37,2013-01-14 02:52:00,
2013-01-13 21:58:00,63.0,60.6,30.09,East,90,0.0,0.0,92,0.00,SCT,,0.00,WeatherDisplay:10.37,2013-01-14 02:58:00,
2013-01-13 22:10:00,62.8,60.7,30.10,East,90,0.0,0.0,93,0.00,SCT,,0.00,WeatherDisplay:10.37,2013-01-14 03:10:00,
2013-01-13 22:24:00,62.2,60.2,30.10,East,90,0.0,0.0,93,0.00,SCT,,0.00,WeatherDisplay:10.37,2013-01-14 03:24:00,
2013-01-13 22:32:00,61.9,59.8,30.10,East,90,0.0,0.0,93,0.00,SCT,,0.00,WeatherDisplay:10.37,2013-01-14 03:32:00,
2013-01-13 22:41:00,61.9,59.8,30.10,East,90,0.0,0.0,93,0.00,SCT,,0.00,WeatherDisplay:10.37,2013-01-14 03:41:00,
2013-01-13 22:50:00,61.9,59.8,30.11,East,90,0.0,0.0,93,0.00,SCT,,0.00,WeatherDisplay:10.37,2013-01-14 03:50:00,
2013-01-13 23:06:00,61.3,59.3,30.11,East,90,0.0,0.0,93,0.00,SCT,,0.00,WeatherDisplay:10.37,2013-01-14 04:06:00,
2013-01-13 23:11:00,61.2,59.4,30.11,East,90,0.0,0.0,94,0.00,SCT,,0.00,WeatherDisplay:10.37,2013-01-14 04:11:00,
2013-01-13 23:16:00,61.0,59.2,30.11,East,90,0.0,0.0,94,0.00,SCT,,0.00,WeatherDisplay:10.37,2013-01-14 04:16:00,
2013-01-13 23:21:00,61.0,59.2,30.11,East,90,0.0,0.0,94,0.00,SCT,,0.00,WeatherDisplay:10.37,2013-01-14 04:21:00,
2013-01-13 23:26:00,61.0,59.2,30.11,East,90,0.0,0.0,94,0.00,SCT,,0.00,WeatherDisplay:10.37,2013-01-14 04:26:00,
2013-01-13 23:31:00,60.8,59.1,30.11,East,90,0.0,0.0,94,0.00,SCT,,0.00,WeatherDisplay:10.37,2013-01-14 04:31:00,
2013-01-13 23:36:00,60.8,59.4,30.12,East,90,0.0,0.0,95,0.00,SCT,,0.00,WeatherDisplay:10.37,2013-01-14 04:36:00,
2013-01-13 23:41:00,60.8,59.4,30.11,East,90,0.0,0.0,95,0.00,SCT,,0.00,WeatherDisplay:10.37,2013-01-14 04:41:00,
2013-01-13 23:46:00,60.4,59.0,30.11,East,90,0.0,0.0,95,0.00,SCT,,0.00,WeatherDisplay:10.37,2013-01-14 04:46:00,
2013-01-13 23:51:00,60.4,59.0,30.11,East,90,0.0,0.0,95,0.00,SCT,,0.00,WeatherDisplay:10.37,2013-01-14 04:51:00,
2013-01-13 23:56:00,60.4,59.0,30.11,East,90,0.0,0.0,95,0.00,SCT,,0.00,WeatherDisplay:10.37,2013-01-14 04:56:00,